createdAt,value
2022-11-03T00:01:36.220Z,76867.75
2022-11-03T00:04:06.672Z,76875.97
2022-11-03T00:06:33.887Z,76884.19
2022-11-03T00:09:01.549Z,76888.31
2022-11-03T00:11:29.303Z,76894.47
2022-11-03T00:13:56.665Z,76898.59
2022-11-03T00:16:24.083Z,76908.88
2022-11-03T00:18:52.309Z,76908.88
2022-11-03T00:21:19.367Z,76908.88
2022-11-03T00:23:46.756Z,76929.41
2022-11-03T00:26:14.543Z,76929.41
2022-11-03T00:28:41.928Z,76925.31
2022-11-03T00:31:09.863Z,76929.41
2022-11-03T00:33:37.337Z,76925.31
2022-11-03T00:36:04.925Z,76937.66
2022-11-03T00:38:33.972Z,76952.03
2022-11-03T00:41:02.000Z,76949.97
2022-11-03T00:43:30.022Z,76956.16
2022-11-03T00:45:57.076Z,76958.19
2022-11-03T00:48:30.153Z,76958.19
2022-11-03T00:51:00.281Z,76935.59
2022-11-03T00:53:27.451Z,76945.88
2022-11-03T00:55:55.280Z,76949.97
2022-11-03T00:58:22.367Z,76958.19
2022-11-03T01:00:49.662Z,76945.88
2022-11-03T01:03:17.005Z,76966.44
2022-11-03T01:06:03.294Z,76949.97
2022-11-03T01:08:33.911Z,76968.47
2022-11-03T01:11:23.513Z,76958.19
2022-11-03T01:13:50.762Z,76945.88
2022-11-03T01:16:18.365Z,76958.19
2022-11-03T01:18:45.386Z,76962.31
2022-11-03T01:21:12.935Z,76949.97
2022-11-03T01:23:39.968Z,76958.19
2022-11-03T01:26:07.858Z,76958.19
2022-11-03T01:28:35.505Z,76943.81
2022-11-03T01:31:06.741Z,76945.88
2022-11-03T01:33:33.851Z,76941.75
2022-11-03T01:36:01.858Z,76958.19
2022-11-03T01:38:31.868Z,76945.88
2022-11-03T01:40:59.188Z,76949.97
2022-11-03T01:43:28.545Z,76945.88
2022-11-03T01:46:12.147Z,76945.88
2022-11-03T01:48:40.960Z,76945.88
2022-11-03T01:51:08.208Z,76993.16
2022-11-03T01:53:35.737Z,77013.72
2022-11-03T01:56:02.773Z,77036.34
2022-11-03T01:58:30.496Z,77036.34
2022-11-03T02:00:59.376Z,77040.44
2022-11-03T02:03:28.019Z,77042.50
2022-11-03T02:05:55.457Z,77048.66
2022-11-03T02:08:23.957Z,77032.22
2022-11-03T02:10:51.004Z,77040.44
2022-11-03T02:13:19.488Z,77038.38
2022-11-03T02:15:50.261Z,77061.00
2022-11-03T02:18:17.766Z,77061.00
2022-11-03T02:20:45.270Z,77052.78
2022-11-03T02:23:17.536Z,77061.00
2022-11-03T02:25:48.536Z,77056.88
2022-11-03T02:28:16.618Z,77065.13
2022-11-03T02:30:51.610Z,77073.34
2022-11-03T02:33:48.288Z,77085.66
2022-11-03T02:36:18.348Z,77085.66
2022-11-03T02:38:47.533Z,77093.91
2022-11-03T02:41:14.681Z,77100.06
2022-11-03T02:43:42.223Z,77102.13
2022-11-03T02:46:10.283Z,77102.13
2022-11-03T02:48:37.842Z,77106.22
2022-11-03T02:51:05.269Z,77100.06
2022-11-03T02:53:34.314Z,77102.13
2022-11-03T02:56:03.810Z,77110.34
2022-11-03T02:58:34.371Z,77114.47
2022-11-03T03:01:15.138Z,77108.28
2022-11-03T03:03:43.808Z,77118.56
2022-11-03T03:06:12.233Z,77122.69
2022-11-03T03:08:41.678Z,77110.34
2022-11-03T03:11:09.133Z,77108.28
2022-11-03T03:13:36.309Z,77098.00
2022-11-03T03:16:12.203Z,77102.13
2022-11-03T03:18:40.829Z,77102.13
2022-11-03T03:21:12.286Z,77110.34
2022-11-03T03:23:47.413Z,77124.72
2022-11-03T03:26:16.232Z,77114.47
2022-11-03T03:28:47.853Z,77120.63
2022-11-03T03:31:15.252Z,77122.69
2022-11-03T03:33:46.556Z,77126.78
2022-11-03T03:36:16.868Z,77132.97
2022-11-03T03:38:45.172Z,77147.34
2022-11-03T03:41:12.716Z,77135.03
2022-11-03T03:43:43.235Z,77147.34
2022-11-03T03:46:10.425Z,77159.69
2022-11-03T03:48:37.976Z,77141.19
2022-11-03T03:51:05.037Z,77139.13
2022-11-03T03:53:34.165Z,77135.03
2022-11-03T03:56:01.465Z,77130.91
2022-11-03T03:58:28.681Z,77126.78
2022-11-03T04:00:55.797Z,77095.94
2022-11-03T04:03:23.695Z,77089.78
2022-11-03T04:05:50.795Z,77089.78
2022-11-03T04:08:18.617Z,77114.47
2022-11-03T04:11:05.692Z,77110.34
2022-11-03T04:13:51.718Z,77114.47
2022-11-03T04:16:39.887Z,77104.19
2022-11-03T04:19:27.120Z,77098.00
2022-11-03T04:22:12.941Z,77077.44
2022-11-03T04:24:39.992Z,77073.34
2022-11-03T04:27:27.060Z,77089.78
2022-11-03T04:29:56.497Z,77081.56
2022-11-03T04:32:23.544Z,77083.63
2022-11-03T04:34:50.564Z,77085.66
2022-11-03T04:37:17.788Z,77065.13
2022-11-03T04:42:16.996Z,77065.13
2022-11-03T04:44:44.322Z,77069.22
2022-11-03T04:47:11.938Z,77065.13
2022-11-03T04:49:39.902Z,77061.00
2022-11-03T04:52:14.859Z,77048.66
2022-11-03T04:54:42.186Z,77048.66
2022-11-03T04:57:10.765Z,77038.38
2022-11-03T04:59:37.988Z,77032.22
2022-11-03T05:02:11.034Z,77032.22
2022-11-03T05:04:38.080Z,77024.00
2022-11-03T05:07:11.174Z,77005.50
2022-11-03T05:09:42.679Z,76991.09
2022-11-03T05:12:10.863Z,76962.31
2022-11-03T05:14:39.029Z,76980.81
2022-11-03T05:17:16.180Z,76991.09
2022-11-03T05:19:43.623Z,76982.88
2022-11-03T05:22:15.685Z,76982.88
2022-11-03T05:24:43.680Z,76960.25
2022-11-03T05:27:19.335Z,76966.44
2022-11-03T05:29:46.585Z,76987.00
2022-11-03T05:32:19.286Z,76968.47
2022-11-03T05:34:47.111Z,76941.75
2022-11-03T05:37:25.821Z,76939.69
2022-11-03T05:39:54.960Z,76912.97
2022-11-03T05:42:30.353Z,76925.31
2022-11-03T05:44:57.756Z,76873.91
2022-11-03T05:47:26.160Z,76847.19
2022-11-03T05:49:54.718Z,76818.41
2022-11-03T05:52:22.777Z,76843.06
2022-11-03T05:54:50.414Z,76873.91
2022-11-03T05:57:17.532Z,76845.13
2022-11-03T05:59:48.960Z,76851.31
2022-11-03T06:02:28.402Z,76892.41
2022-11-03T06:04:55.491Z,76900.63
2022-11-03T06:07:23.540Z,76855.41
2022-11-03T06:09:50.658Z,76834.84
2022-11-03T06:12:18.244Z,76849.25
2022-11-03T06:14:45.598Z,76888.31
2022-11-03T06:17:19.118Z,76838.97
2022-11-03T06:19:48.148Z,76806.06
2022-11-03T06:22:17.647Z,76824.56
2022-11-03T06:24:47.229Z,76822.50
2022-11-03T06:27:32.394Z,76793.75
2022-11-03T06:30:01.101Z,76760.84
2022-11-03T06:32:28.300Z,76773.19
2022-11-03T06:34:57.796Z,76801.97
2022-11-03T06:37:25.970Z,76752.63
2022-11-03T06:39:55.472Z,76686.84
2022-11-03T06:42:25.562Z,76690.94
2022-11-03T06:44:55.710Z,76723.84
2022-11-03T06:47:23.647Z,76707.41
2022-11-03T06:49:51.296Z,76730.00
2022-11-03T06:52:27.781Z,76707.41
2022-11-03T06:55:12.165Z,76715.63
2022-11-03T06:57:44.096Z,76732.06
2022-11-03T07:00:39.668Z,76719.72
2022-11-03T07:03:18.489Z,76723.84
2022-11-03T07:05:45.589Z,76721.78
2022-11-03T07:08:25.919Z,76725.91
2022-11-03T07:10:59.926Z,76723.84
2022-11-03T07:13:27.468Z,76736.16
2022-11-03T07:15:55.820Z,76748.50
2022-11-03T07:18:24.209Z,76732.06
2022-11-03T07:20:52.559Z,76723.84
2022-11-03T07:23:21.100Z,76738.22
2022-11-03T07:25:53.363Z,76732.06
2022-11-03T07:28:24.680Z,76719.72
2022-11-03T07:30:51.787Z,76709.44
2022-11-03T07:33:20.517Z,76707.41
2022-11-03T07:38:36.005Z,76707.41
2022-11-03T07:41:03.072Z,76695.06
2022-11-03T07:43:30.261Z,76637.50
2022-11-03T07:45:58.705Z,76625.16
2022-11-03T07:48:36.600Z,76635.44
2022-11-03T07:51:22.677Z,76631.34
2022-11-03T07:53:53.225Z,76604.59
2022-11-03T07:56:27.392Z,76571.72
2022-11-03T07:58:57.488Z,76596.38
2022-11-03T08:01:26.504Z,76534.72
2022-11-03T08:03:54.936Z,76491.53
2022-11-03T08:06:22.001Z,76431.94
2022-11-03T08:08:49.123Z,76357.94
2022-11-03T08:11:16.262Z,76341.50
2022-11-03T08:13:43.333Z,76394.94
2022-11-03T08:16:10.831Z,76423.72
2022-11-03T08:18:38.041Z,76390.81
2022-11-03T08:21:05.799Z,76131.84
2022-11-03T08:23:33.999Z,76020.84
2022-11-03T08:26:07.249Z,75946.84
2022-11-03T08:28:36.979Z,76125.66
2022-11-03T08:31:12.020Z,76189.38
2022-11-03T08:33:39.836Z,76279.81
2022-11-03T08:36:09.577Z,76343.53
2022-11-03T08:38:37.438Z,76378.50
2022-11-03T08:41:04.787Z,76333.28
2022-11-03T08:43:32.167Z,76320.94
2022-11-03T08:46:08.174Z,76314.78
2022-11-03T08:48:40.293Z,76300.38
2022-11-03T08:51:10.379Z,76271.59
2022-11-03T08:53:38.575Z,76310.66
2022-11-03T08:56:10.467Z,76327.09
2022-11-03T08:58:40.814Z,76345.59
2022-11-03T09:01:09.559Z,76386.72
2022-11-03T09:03:37.871Z,76390.81
2022-11-03T09:06:06.180Z,76431.94
2022-11-03T09:11:20.675Z,76479.22
2022-11-03T09:13:48.842Z,76491.53
2022-11-03T09:16:16.858Z,76497.72
2022-11-03T09:18:45.440Z,76489.50
2022-11-03T09:21:13.641Z,76487.44
2022-11-03T09:23:40.937Z,76501.81
2022-11-03T09:26:07.964Z,76464.81
2022-11-03T09:28:35.282Z,76462.78
2022-11-03T09:31:02.623Z,76473.03
2022-11-03T09:33:29.754Z,76390.81
2022-11-03T09:35:58.615Z,76370.25
2022-11-03T09:38:25.811Z,76386.72
2022-11-03T09:40:53.583Z,76333.28
2022-11-03T09:43:20.707Z,76318.88
2022-11-03T09:45:47.860Z,76327.09
2022-11-03T09:48:15.032Z,76353.81
2022-11-03T09:50:42.675Z,76333.28
2022-11-03T09:53:12.788Z,76251.03
2022-11-03T09:55:41.168Z,76201.72
2022-11-03T09:58:15.313Z,76201.72
2022-11-03T10:00:43.704Z,76222.28
2022-11-03T10:03:14.657Z,76214.06
2022-11-03T10:05:42.138Z,76197.59
2022-11-03T10:08:22.348Z,76218.16
2022-11-03T10:10:54.798Z,76008.50
2022-11-03T10:13:28.471Z,75646.78
2022-11-03T10:15:56.506Z,75381.69
2022-11-03T10:18:23.858Z,75502.94
2022-11-03T10:20:55.000Z,75527.59
2022-11-03T10:23:22.203Z,75546.09
2022-11-03T10:25:49.233Z,75712.56
2022-11-03T10:28:16.227Z,75839.97
2022-11-03T10:31:11.113Z,75833.81
2022-11-03T10:33:40.609Z,75909.84
2022-11-03T10:36:17.434Z,75897.53
2022-11-03T10:38:45.106Z,75983.84
2022-11-03T10:41:12.710Z,75975.63
2022-11-03T10:43:40.359Z,75881.09
2022-11-03T10:46:29.607Z,75856.41
2022-11-03T10:51:38.790Z,75967.41
2022-11-03T10:54:06.063Z,75897.53
2022-11-03T10:56:33.181Z,75872.84
2022-11-03T10:59:00.299Z,75823.53
2022-11-03T11:01:27.666Z,75618.03
2022-11-03T11:03:55.402Z,75507.03
2022-11-03T11:06:26.407Z,75537.88
2022-11-03T11:09:00.047Z,75556.38
2022-11-03T11:11:27.449Z,75500.88
2022-11-03T11:14:13.371Z,75377.59
2022-11-03T11:16:47.578Z,75416.63
2022-11-03T11:19:15.106Z,75687.91
2022-11-03T11:21:42.797Z,75581.03
2022-11-03T11:24:10.576Z,75556.38
2022-11-03T11:26:38.963Z,75531.72
2022-11-03T11:29:06.198Z,75502.94
2022-11-03T11:31:55.236Z,75412.53
2022-11-03T11:34:23.541Z,75490.59
2022-11-03T11:36:56.462Z,75476.22
2022-11-03T11:39:24.090Z,75412.53
2022-11-03T11:42:09.580Z,75426.91
2022-11-03T11:44:43.217Z,75268.66
2022-11-03T11:47:29.422Z,75387.84
2022-11-03T11:50:06.211Z,75309.78
2022-11-03T11:52:34.678Z,75354.97
2022-11-03T11:55:01.755Z,75396.06
2022-11-03T11:57:30.341Z,75578.97
2022-11-03T11:59:57.366Z,75480.34
2022-11-03T12:02:24.363Z,75482.38
2022-11-03T12:04:53.009Z,75554.31
2022-11-03T12:07:31.602Z,75572.81
2022-11-03T12:10:19.127Z,75681.72
2022-11-03T12:12:46.767Z,75671.44
2022-11-03T12:15:32.777Z,75735.16
2022-11-03T12:17:59.861Z,75839.97
2022-11-03T12:20:43.601Z,75907.81
2022-11-03T12:23:10.671Z,75934.53
2022-11-03T12:25:40.120Z,75950.97
2022-11-03T12:28:07.475Z,75946.84
2022-11-03T12:30:39.627Z,76029.06
2022-11-03T12:33:07.704Z,76022.91
2022-11-03T12:35:36.730Z,76022.91
2022-11-03T12:38:03.774Z,76004.41
2022-11-03T12:40:30.941Z,76000.28
2022-11-03T12:42:58.008Z,76031.13
2022-11-03T12:45:25.063Z,76078.41
2022-11-03T12:47:52.224Z,76061.94
2022-11-03T12:50:19.501Z,76053.72
2022-11-03T12:52:46.648Z,76072.22
2022-11-03T12:55:13.827Z,76082.50
2022-11-03T12:57:41.003Z,76066.06
2022-11-03T13:00:08.577Z,76086.63
2022-11-03T13:02:35.897Z,76115.38
2022-11-03T13:05:03.215Z,76140.06
2022-11-03T13:07:34.540Z,76127.72
2022-11-03T13:10:04.903Z,76113.34
2022-11-03T13:12:32.807Z,76131.84
2022-11-03T13:15:00.838Z,76152.38
2022-11-03T13:17:35.794Z,76140.06
2022-11-03T13:20:14.664Z,76133.88
2022-11-03T13:22:42.548Z,76209.94
2022-11-03T13:25:09.810Z,76209.94
2022-11-03T13:27:37.488Z,76189.38
2022-11-03T13:30:05.813Z,76177.06
2022-11-03T13:32:33.811Z,76189.38
2022-11-03T13:35:00.859Z,76177.06
2022-11-03T13:37:28.199Z,76154.44
2022-11-03T13:39:55.324Z,76144.16
2022-11-03T13:42:23.020Z,76181.16
2022-11-03T13:44:50.243Z,76234.59
2022-11-03T13:47:17.545Z,76240.78
2022-11-03T13:50:12.640Z,76226.38
2022-11-03T13:52:31.830Z,76214.06
2022-11-03T14:00:32.979Z,76222.28
2022-11-03T14:05:49.216Z,76242.81
2022-11-03T14:08:16.630Z,76222.28
2022-11-03T14:10:43.826Z,76220.22
2022-11-03T14:13:15.267Z,76265.44
2022-11-03T14:15:43.433Z,76275.72
2022-11-03T14:18:10.565Z,76283.94
2022-11-03T14:20:37.872Z,76292.16
2022-11-03T14:23:05.175Z,76300.38
2022-11-03T14:25:32.849Z,76283.94
2022-11-03T14:28:00.158Z,76300.38
2022-11-03T14:30:27.248Z,76298.31
2022-11-03T14:32:59.433Z,76320.94
2022-11-03T14:35:26.899Z,76345.59
2022-11-03T14:37:54.023Z,76341.50
2022-11-03T14:40:44.975Z,76347.66
2022-11-03T14:43:12.217Z,76366.16
2022-11-03T14:45:42.598Z,76349.72
2022-11-03T14:48:10.212Z,76374.38
2022-11-03T14:50:37.681Z,76374.38
2022-11-03T14:53:04.812Z,76382.59
2022-11-03T14:55:32.307Z,76384.66
2022-11-03T14:58:00.884Z,76403.16
2022-11-03T15:00:27.956Z,76399.03
2022-11-03T15:02:55.176Z,76390.81
2022-11-03T15:05:41.090Z,76374.38
2022-11-03T15:08:08.407Z,76390.81
2022-11-03T15:10:35.992Z,76382.59
2022-11-03T15:13:07.089Z,76394.94
2022-11-03T15:15:35.712Z,76394.94
2022-11-03T15:18:06.725Z,76390.81
2022-11-03T15:20:35.656Z,76380.53
2022-11-03T15:25:50.618Z,76386.72
2022-11-03T15:28:18.084Z,76386.72
2022-11-03T15:30:45.151Z,76362.03
2022-11-03T15:35:40.993Z,76399.03
2022-11-03T15:38:08.722Z,76370.25
2022-11-03T15:40:36.066Z,76349.72
2022-11-03T15:43:03.348Z,76372.31
2022-11-03T15:45:30.510Z,76397.00
2022-11-03T15:47:58.643Z,76376.44
2022-11-03T15:50:26.071Z,76353.81
2022-11-03T15:52:56.244Z,76357.94
2022-11-03T15:55:23.619Z,76399.03
2022-11-03T15:57:51.102Z,76374.38
2022-11-03T16:00:21.545Z,76372.31
2022-11-03T16:02:49.559Z,76378.50
2022-11-03T16:05:20.925Z,76431.94
2022-11-03T16:07:51.706Z,76444.28
2022-11-03T16:10:19.009Z,76436.03
2022-11-03T16:12:46.290Z,76405.22
2022-11-03T16:15:13.361Z,76411.38
2022-11-03T16:17:45.406Z,76411.38
2022-11-03T16:20:12.957Z,76390.81
2022-11-03T16:22:40.514Z,76399.03
2022-11-03T16:25:12.363Z,76440.16
2022-11-03T16:27:43.043Z,76448.38
2022-11-03T16:30:12.179Z,76411.38
2022-11-03T16:32:39.401Z,76407.28
2022-11-03T16:35:06.669Z,76436.03
2022-11-03T16:37:34.922Z,76440.16
2022-11-03T16:40:02.100Z,76415.50
2022-11-03T16:42:29.547Z,76448.38
2022-11-03T16:44:56.739Z,76468.94
2022-11-03T16:47:27.019Z,76456.59
2022-11-03T16:49:54.147Z,76440.16
2022-11-03T16:52:21.729Z,76468.94
2022-11-03T16:54:48.774Z,76448.38
2022-11-03T16:57:15.844Z,76460.72
2022-11-03T16:59:42.877Z,76436.03
2022-11-03T17:02:16.289Z,76411.38
2022-11-03T17:04:43.872Z,76436.03
2022-11-03T17:07:11.702Z,76442.22
2022-11-03T17:09:38.828Z,76419.59
2022-11-03T17:12:06.644Z,76407.28
2022-11-03T17:14:33.744Z,76436.03
2022-11-03T17:17:00.996Z,76436.03
2022-11-03T17:19:28.181Z,76458.66
2022-11-03T17:21:57.212Z,76438.09
2022-11-03T17:24:24.394Z,76419.59
2022-11-03T17:26:55.735Z,76429.88
2022-11-03T17:29:23.855Z,76452.50
2022-11-03T17:31:52.690Z,76415.50
2022-11-03T17:34:21.420Z,76415.50
2022-11-03T17:36:49.079Z,76444.28
2022-11-03T17:39:16.415Z,76456.59
2022-11-03T17:41:43.605Z,76452.50
2022-11-03T17:44:11.838Z,76440.16
2022-11-03T17:46:39.336Z,76464.81
2022-11-03T17:49:06.430Z,76473.03
2022-11-03T17:51:34.112Z,76475.09
2022-11-03T17:54:01.239Z,76473.03
2022-11-03T17:56:30.816Z,76475.09
2022-11-03T17:58:58.634Z,76464.81
2022-11-03T18:01:28.978Z,76446.31
2022-11-03T18:03:56.350Z,76460.72
2022-11-03T18:06:23.592Z,76464.81
2022-11-03T18:08:50.688Z,76468.94
2022-11-03T18:11:39.626Z,76477.16
2022-11-03T18:14:11.059Z,76479.22
2022-11-03T18:16:40.612Z,76471.00
2022-11-03T18:19:13.838Z,76464.81
2022-11-03T18:21:41.175Z,76473.03
2022-11-03T18:24:12.336Z,76466.88
2022-11-03T18:26:39.458Z,76458.66
2022-11-03T18:31:41.375Z,76466.88
2022-11-03T18:34:24.728Z,76456.59
2022-11-03T18:36:53.121Z,76460.72
2022-11-03T18:39:24.603Z,76456.59
2022-11-03T18:41:51.868Z,76452.50
2022-11-03T18:44:20.312Z,76452.50
2022-11-03T18:46:48.197Z,76452.50
2022-11-03T18:49:15.704Z,76468.94
2022-11-03T18:51:45.011Z,76464.81
2022-11-03T18:54:16.546Z,76481.28
2022-11-03T18:56:43.664Z,76471.00
2022-11-03T18:59:17.371Z,76473.03
2022-11-03T19:01:44.693Z,76473.03
2022-11-03T19:04:15.143Z,76473.03
2022-11-03T19:06:43.046Z,76473.03
2022-11-03T19:09:12.817Z,76464.81
2022-11-03T19:11:39.846Z,76462.78
2022-11-03T19:14:12.810Z,76448.38
2022-11-03T19:16:45.811Z,76456.59
2022-11-03T19:19:23.773Z,76462.78
2022-11-03T19:21:51.247Z,76464.81
2022-11-03T19:24:18.826Z,76460.72
2022-11-03T19:26:46.675Z,76473.03
2022-11-03T19:29:14.898Z,76477.16
2022-11-03T19:31:43.723Z,76471.00
2022-11-03T19:34:18.203Z,76477.16
2022-11-03T19:36:46.839Z,76471.00
2022-11-03T19:39:34.225Z,76471.00
2022-11-03T19:42:20.292Z,76477.16
2022-11-03T19:44:49.469Z,76483.31
2022-11-03T19:47:16.988Z,76475.09
2022-11-03T19:49:44.622Z,76479.22
2022-11-03T19:52:12.056Z,76475.09
2022-11-03T19:54:40.101Z,76468.94
2022-11-03T19:57:10.367Z,76473.03
2022-11-03T19:59:37.470Z,76468.94
2022-11-03T20:02:04.638Z,76466.88
2022-11-03T20:04:32.719Z,76473.03
2022-11-03T20:06:59.924Z,76460.72
2022-11-03T20:12:01.878Z,76468.94
2022-11-03T20:14:29.168Z,76473.03
2022-11-03T20:16:56.908Z,76481.28
2022-11-03T20:19:24.515Z,76489.50
2022-11-03T20:21:51.586Z,76497.72
2022-11-03T20:24:19.481Z,76493.59
2022-11-03T20:26:46.675Z,76487.44
2022-11-03T20:29:15.816Z,76481.28
2022-11-03T20:31:43.924Z,76483.31
2022-11-03T20:34:14.455Z,76473.03
2022-11-03T20:36:41.995Z,76452.50
2022-11-03T20:39:11.697Z,76436.03
2022-11-03T20:41:40.722Z,76464.81
2022-11-03T20:44:09.262Z,76452.50
2022-11-03T20:46:37.162Z,76460.72
2022-11-03T20:49:04.758Z,76448.38
2022-11-03T20:51:37.770Z,76434.00
2022-11-03T20:54:31.798Z,76403.16
2022-11-03T20:56:58.844Z,76399.03
2022-11-03T20:59:27.344Z,76403.16
2022-11-03T21:01:54.572Z,76407.28
2022-11-03T21:04:24.150Z,76411.38
2022-11-03T21:06:51.854Z,76392.88
2022-11-03T21:09:19.370Z,76380.53
2022-11-03T21:11:54.063Z,76386.72
2022-11-03T21:14:21.358Z,76394.94
2022-11-03T21:17:07.913Z,76411.38
2022-11-03T21:20:01.274Z,76403.16
2022-11-03T21:22:51.439Z,76397.00
2022-11-03T21:25:16.326Z,76390.81
2022-11-03T21:27:43.639Z,76390.81
2022-11-03T21:30:11.379Z,76390.81
2022-11-03T21:32:38.432Z,76403.16
2022-11-03T21:35:05.904Z,76407.28
2022-11-03T21:37:33.403Z,76415.50
2022-11-03T21:40:00.608Z,76399.03
2022-11-03T21:42:47.876Z,76411.38
2022-11-03T21:45:15.865Z,76392.88
2022-11-03T21:48:02.854Z,76386.72
2022-11-03T21:50:30.172Z,76390.81
2022-11-03T21:52:59.318Z,76394.94
2022-11-03T21:55:26.877Z,76407.28
2022-11-03T21:57:54.123Z,76415.50
2022-11-03T22:00:21.222Z,76403.16
2022-11-03T22:02:49.405Z,76407.28
2022-11-03T22:05:16.734Z,76409.31
2022-11-03T22:07:44.169Z,76415.50
2022-11-03T22:10:11.311Z,76399.03
2022-11-03T22:12:38.520Z,76423.72
2022-11-03T22:15:24.596Z,76431.94
2022-11-03T22:17:51.644Z,76419.59
2022-11-03T22:20:37.252Z,76427.81
2022-11-03T22:23:23.143Z,76415.50
2022-11-03T22:26:09.592Z,76434.00
2022-11-03T22:28:36.904Z,76427.81
2022-11-03T22:31:22.824Z,76411.38
2022-11-03T22:34:09.154Z,76425.78
2022-11-03T22:36:36.666Z,76419.59
2022-11-03T22:39:22.222Z,76423.72
2022-11-03T22:42:08.445Z,76419.59
2022-11-03T22:44:54.305Z,76421.66
2022-11-03T22:47:21.487Z,76423.72
2022-11-03T22:49:48.983Z,76444.28
2022-11-03T22:52:16.126Z,76436.03
2022-11-03T22:54:43.235Z,76448.38
2022-11-03T22:57:11.408Z,76460.72
2022-11-03T22:59:41.192Z,76436.03
2022-11-03T23:02:08.511Z,76444.28
2022-11-03T23:04:36.093Z,76473.03
2022-11-03T23:07:03.357Z,76468.94
2022-11-03T23:09:30.444Z,76473.03
2022-11-03T23:11:57.955Z,76454.53
2022-11-03T23:14:44.994Z,76479.22
2022-11-03T23:17:12.128Z,76473.03
2022-11-03T23:19:57.703Z,76497.72
2022-11-03T23:22:24.825Z,76485.38
2022-11-03T23:25:01.131Z,76505.94
2022-11-03T23:27:28.297Z,76518.28
2022-11-03T23:29:55.385Z,76516.22
2022-11-03T23:32:22.449Z,76514.16
2022-11-03T23:34:50.174Z,76518.28
2022-11-03T23:37:17.326Z,76530.59
2022-11-03T23:39:44.548Z,76522.38
2022-11-03T23:42:12.379Z,76514.16
2022-11-03T23:44:58.291Z,76530.59
2022-11-03T23:47:44.448Z,76553.22
2022-11-03T23:50:11.589Z,76536.78
2022-11-03T23:52:38.797Z,76528.53
2022-11-03T23:55:06.173Z,76530.59
2022-11-03T23:57:52.932Z,76526.50
